createdAt,value
2019-05-17T00:00:17.482Z,3.33
2019-05-17T00:02:46.608Z,3.53
2019-05-17T00:05:17.519Z,3.47
2019-05-17T00:07:47.274Z,3.43
2019-05-17T00:10:17.257Z,3.50
2019-05-17T00:12:47.080Z,3.33
2019-05-17T00:15:17.013Z,3.53
2019-05-17T00:17:46.999Z,3.90
2019-05-17T00:20:17.325Z,3.83
2019-05-17T00:22:47.129Z,4.13
2019-05-17T00:25:17.137Z,3.80
2019-05-17T00:27:47.456Z,3.73
2019-05-17T00:30:17.680Z,3.80
2019-05-17T00:32:47.557Z,4.03
2019-05-17T00:35:17.771Z,4.10
2019-05-17T00:37:46.672Z,4.40
2019-05-17T00:40:16.610Z,3.87
2019-05-17T00:42:46.715Z,3.80
2019-05-17T00:45:17.616Z,3.90
2019-05-17T00:47:46.830Z,3.80
2019-05-17T00:50:17.186Z,4.07
2019-05-17T00:52:47.463Z,3.53
2019-05-17T00:55:17.744Z,3.77
2019-05-17T00:57:47.518Z,4.30
2019-05-17T01:00:17.201Z,4.47
2019-05-17T01:02:46.867Z,4.30
2019-05-17T01:05:17.310Z,4.10
2019-05-17T01:07:47.142Z,4.13
2019-05-17T01:10:16.878Z,4.67
2019-05-17T01:12:45.347Z,5.00
2019-05-17T01:15:16.593Z,5.43
2019-05-17T01:17:47.130Z,5.30
2019-05-17T01:20:17.338Z,4.83
2019-05-17T01:22:47.402Z,5.03
2019-05-17T01:25:17.124Z,5.77
2019-05-17T01:27:47.460Z,5.57
2019-05-17T01:30:18.077Z,5.00
2019-05-17T01:32:46.838Z,4.83
2019-05-17T01:35:16.709Z,5.37
2019-05-17T01:37:47.504Z,5.30
2019-05-17T01:40:17.532Z,6.17
2019-05-17T01:42:46.724Z,6.23
2019-05-17T01:45:16.608Z,6.20
2019-05-17T01:47:47.413Z,5.80
2019-05-17T01:50:17.580Z,6.40
2019-05-17T01:52:46.323Z,6.23
2019-05-17T01:55:17.169Z,5.97
2019-05-17T01:57:47.372Z,6.87
2019-05-17T02:00:17.521Z,6.73
2019-05-17T02:02:48.150Z,5.57
2019-05-17T02:05:17.491Z,7.13
2019-05-17T02:07:46.603Z,6.10
2019-05-17T02:10:16.790Z,6.23
2019-05-17T02:12:48.692Z,6.83
2019-05-17T02:15:16.559Z,6.50
2019-05-17T02:17:46.823Z,6.83
2019-05-17T02:20:17.104Z,6.60
2019-05-17T02:22:47.363Z,6.60
2019-05-17T02:25:16.968Z,6.50
2019-05-17T02:27:45.526Z,7.20
2019-05-17T02:30:14.952Z,6.90
2019-05-17T02:32:44.316Z,6.73
2019-05-17T02:35:14.718Z,7.53
2019-05-17T02:37:43.752Z,6.97
2019-05-17T02:40:15.289Z,7.20
2019-05-17T02:42:44.132Z,7.47
2019-05-17T02:45:13.704Z,7.30
2019-05-17T02:47:43.689Z,7.47
2019-05-17T02:50:13.330Z,8.00
2019-05-17T02:52:43.490Z,7.27
2019-05-17T02:55:13.114Z,7.43
2019-05-17T02:57:43.442Z,7.13
2019-05-17T03:00:14.342Z,7.20
2019-05-17T03:02:43.819Z,7.23
2019-05-17T03:05:14.069Z,8.00
2019-05-17T03:07:43.772Z,8.10
2019-05-17T03:10:23.033Z,9.33
2019-05-17T03:12:44.355Z,9.13
2019-05-17T03:15:14.172Z,9.20
2019-05-17T03:17:43.682Z,8.97
2019-05-17T03:20:13.477Z,8.20
2019-05-17T03:22:44.071Z,9.37
2019-05-17T03:25:13.930Z,8.40
2019-05-17T03:27:43.064Z,8.40
2019-05-17T03:30:17.547Z,8.43
2019-05-17T03:32:47.542Z,8.80
2019-05-17T03:35:16.811Z,8.73
2019-05-17T03:37:44.213Z,9.50
2019-05-17T03:40:27.493Z,8.63
2019-05-17T03:42:43.292Z,34.80
2019-05-17T03:45:13.768Z,15.93
2019-05-17T03:47:44.381Z,9.87
2019-05-17T03:50:13.717Z,10.10
2019-05-17T03:52:44.284Z,10.57
2019-05-17T03:55:13.656Z,10.17
2019-05-17T03:57:44.099Z,11.97
2019-05-17T04:00:14.671Z,12.00
2019-05-17T04:02:44.852Z,12.03
2019-05-17T04:05:13.736Z,12.93
2019-05-17T04:07:43.436Z,12.97
2019-05-17T04:10:15.062Z,12.87
2019-05-17T04:12:44.278Z,13.13
2019-05-17T04:15:13.960Z,13.67
2019-05-17T04:17:44.039Z,13.47
2019-05-17T04:20:14.059Z,11.77
2019-05-17T04:22:44.084Z,11.40
2019-05-17T04:25:14.002Z,12.13
2019-05-17T04:27:43.772Z,12.67
2019-05-17T04:30:14.052Z,13.57
2019-05-17T04:32:44.106Z,12.90
2019-05-17T04:35:13.772Z,13.03
2019-05-17T04:37:44.818Z,14.80
2019-05-17T04:40:14.617Z,15.50
2019-05-17T04:42:44.022Z,16.20
2019-05-17T04:45:13.417Z,15.33
2019-05-17T04:47:44.246Z,14.77
2019-05-17T04:50:13.944Z,15.57
2019-05-17T04:52:43.093Z,16.17
2019-05-17T04:55:13.759Z,13.63
2019-05-17T04:57:44.011Z,12.50
2019-05-17T05:03:34.354Z,13.70
2019-05-17T05:06:03.480Z,15.17
2019-05-17T05:08:33.008Z,15.50
2019-05-17T05:11:04.069Z,16.73
2019-05-17T05:13:33.408Z,16.37
2019-05-17T05:16:02.948Z,17.07
2019-05-17T05:18:32.721Z,17.37
2019-05-17T05:21:03.506Z,16.77
2019-05-17T05:23:31.917Z,16.70
2019-05-17T05:26:02.811Z,16.77
2019-05-17T05:28:31.777Z,15.90
2019-05-17T05:31:01.937Z,16.17
2019-05-17T05:33:33.116Z,15.70
2019-05-17T05:36:02.219Z,15.37
2019-05-17T05:38:32.072Z,15.13
2019-05-17T05:41:01.839Z,14.03
2019-05-17T05:43:32.716Z,15.60
2019-05-17T05:46:02.566Z,14.30
2019-05-17T05:48:32.601Z,15.90
2019-05-17T05:51:03.995Z,16.47
2019-05-17T05:53:32.576Z,16.37
2019-05-17T05:56:03.138Z,16.73
2019-05-17T05:58:32.238Z,16.97
2019-05-17T06:01:02.407Z,17.20
2019-05-17T06:03:32.005Z,17.13
2019-05-17T06:06:01.751Z,17.17
2019-05-17T06:08:32.249Z,16.10
2019-05-17T06:11:02.157Z,17.03
2019-05-17T06:13:32.545Z,16.87
2019-05-17T06:16:02.649Z,16.90
2019-05-17T06:18:31.834Z,16.90
2019-05-17T06:21:02.727Z,17.10
2019-05-17T06:23:31.539Z,17.00
2019-05-17T06:26:03.303Z,17.50
2019-05-17T06:28:31.877Z,16.17
2019-05-17T06:31:02.987Z,16.87
2019-05-17T06:33:34.593Z,17.57
2019-05-17T06:36:02.771Z,17.50
2019-05-17T06:38:32.890Z,15.93
2019-05-17T06:41:01.755Z,16.00
2019-05-17T06:43:32.244Z,16.30
2019-05-17T06:46:01.766Z,16.97
2019-05-17T06:48:31.837Z,17.03
2019-05-17T06:51:02.645Z,15.73
2019-05-17T06:53:32.421Z,17.20
2019-05-17T06:56:02.630Z,16.63
2019-05-17T06:58:31.675Z,16.47
2019-05-17T07:01:00.336Z,15.60
2019-05-17T07:03:29.491Z,15.77
2019-05-17T07:06:02.367Z,15.67
2019-05-17T07:08:30.797Z,16.37
2019-05-17T07:10:59.748Z,15.93
2019-05-17T07:13:30.127Z,15.77
2019-05-17T07:15:59.767Z,16.30
2019-05-17T07:18:29.970Z,16.17
2019-05-17T07:21:02.663Z,15.93
2019-05-17T07:23:30.279Z,15.47
2019-05-17T07:25:59.732Z,15.70
2019-05-17T07:28:30.273Z,14.77
2019-05-17T07:30:59.692Z,15.47
2019-05-17T07:33:30.605Z,15.77
2019-05-17T07:36:00.754Z,15.40
2019-05-17T07:38:30.293Z,15.97
2019-05-17T07:40:59.673Z,16.20
2019-05-17T07:43:29.930Z,15.03
2019-05-17T07:46:00.427Z,14.60
2019-05-17T07:48:31.081Z,16.00
2019-05-17T07:50:59.370Z,14.93
2019-05-17T07:53:30.474Z,14.20
2019-05-17T07:55:59.627Z,15.03
2019-05-17T07:58:30.005Z,15.17
2019-05-17T08:00:58.641Z,15.33
2019-05-17T08:03:27.061Z,14.00
2019-05-17T08:05:55.472Z,15.43
2019-05-17T08:08:23.872Z,14.20
2019-05-17T08:10:52.293Z,13.23
2019-05-17T08:13:29.920Z,13.57
2019-05-17T08:15:50.978Z,15.03
2019-05-17T08:18:20.365Z,14.60
2019-05-17T08:20:50.227Z,12.77
2019-05-17T08:23:20.145Z,12.20
2019-05-17T08:25:55.382Z,14.00
2019-05-17T08:28:21.391Z,11.43
2019-05-17T08:30:50.165Z,12.57
2019-05-17T08:33:19.475Z,11.83
2019-05-17T08:35:49.451Z,11.97
2019-05-17T08:38:19.793Z,11.77
2019-05-17T08:40:50.740Z,12.15
2019-05-17T08:43:18.225Z,13.93
2019-05-17T08:45:46.727Z,10.90
2019-05-17T08:48:15.200Z,10.90
2019-05-17T08:50:43.697Z,8.85
2019-05-17T08:53:12.228Z,9.60
2019-05-17T08:55:41.320Z,9.78
2019-05-17T08:58:10.434Z,8.78
2019-05-17T09:00:40.618Z,9.18
2019-05-17T09:03:10.714Z,9.50
2019-05-17T09:05:41.713Z,8.95
2019-05-17T09:08:10.555Z,9.33
2019-05-17T09:10:40.765Z,10.40
2019-05-17T09:13:12.345Z,10.20
2019-05-17T09:15:40.106Z,9.90
2019-05-17T09:18:09.851Z,9.33
2019-05-17T09:20:40.523Z,9.05
2019-05-17T09:23:09.649Z,8.13
2019-05-17T09:25:39.732Z,10.28
2019-05-17T09:28:10.203Z,9.85
2019-05-17T09:30:40.453Z,8.30
2019-05-17T09:33:11.242Z,8.90
2019-05-17T09:35:40.795Z,8.60
2019-05-17T09:38:10.477Z,9.20
2019-05-17T09:40:40.296Z,7.05
2019-05-17T09:43:10.177Z,8.75
2019-05-17T09:45:40.527Z,7.80
2019-05-17T09:48:10.368Z,9.08
2019-05-17T09:50:39.849Z,8.10
2019-05-17T09:53:10.881Z,8.88
2019-05-17T09:55:39.746Z,8.60
2019-05-17T09:58:09.962Z,8.70
2019-05-17T10:00:38.633Z,8.45
2019-05-17T10:03:09.551Z,9.93
2019-05-17T10:05:40.251Z,8.28
2019-05-17T10:08:10.593Z,8.08
2019-05-17T10:10:40.176Z,8.90
2019-05-17T10:13:09.832Z,8.38
2019-05-17T10:15:40.895Z,9.78
2019-05-17T10:18:11.154Z,9.73
2019-05-17T10:20:39.890Z,10.13
2019-05-17T10:23:10.481Z,9.55
2019-05-17T10:25:39.996Z,9.25
2019-05-17T10:28:10.049Z,9.28
2019-05-17T10:30:39.804Z,9.60
2019-05-17T10:33:09.838Z,10.32
2019-05-17T10:35:40.756Z,9.83
2019-05-17T10:38:10.319Z,8.20
2019-05-17T10:40:40.796Z,8.95
2019-05-17T10:43:10.266Z,9.25
2019-05-17T10:45:40.165Z,9.88
2019-05-17T10:48:10.189Z,10.68
2019-05-17T10:50:40.823Z,9.25
2019-05-17T10:53:10.029Z,9.10
2019-05-17T10:55:39.754Z,9.80
2019-05-17T10:58:10.146Z,9.40
2019-05-17T11:00:41.239Z,8.00
2019-05-17T11:03:09.976Z,9.28
2019-05-17T11:05:40.257Z,8.53
2019-05-17T11:08:10.714Z,9.23
2019-05-17T11:10:39.628Z,9.45
2019-05-17T11:13:08.370Z,7.65
2019-05-17T11:15:36.722Z,8.78
2019-05-17T11:18:05.378Z,9.85
2019-05-17T11:20:33.943Z,8.83
2019-05-17T11:23:02.371Z,8.90
2019-05-17T11:25:30.743Z,9.18
2019-05-17T11:27:59.214Z,8.38
2019-05-17T11:30:27.765Z,9.20
2019-05-17T11:32:56.267Z,9.30
2019-05-17T11:35:24.932Z,9.35
2019-05-17T11:37:53.425Z,8.40
2019-05-17T11:40:22.250Z,9.18
2019-05-17T11:42:50.652Z,8.55
2019-05-17T11:45:27.097Z,9.35
2019-05-17T11:47:49.219Z,8.65
2019-05-17T11:50:17.869Z,9.63
2019-05-17T11:52:46.264Z,9.20
2019-05-17T11:55:15.521Z,7.85
2019-05-17T11:57:43.920Z,9.08
2019-05-17T12:00:13.308Z,8.10
2019-05-17T12:02:41.679Z,9.50
2019-05-17T12:05:10.225Z,9.43
2019-05-17T12:07:38.734Z,9.23
2019-05-17T12:10:08.294Z,9.05
2019-05-17T12:12:36.700Z,8.45
2019-05-17T12:15:06.794Z,8.63
2019-05-17T12:17:35.296Z,7.80
2019-05-17T12:20:05.829Z,8.05
2019-05-17T12:22:34.400Z,6.40
2019-05-17T12:25:03.537Z,9.35
2019-05-17T12:27:31.932Z,7.85
2019-05-17T12:30:00.341Z,7.42
2019-05-17T12:32:28.770Z,8.50
2019-05-17T12:34:57.204Z,6.95
2019-05-17T12:37:25.591Z,7.65
2019-05-17T12:39:53.996Z,8.00
2019-05-17T12:42:22.479Z,6.20
2019-05-17T12:44:50.952Z,7.10
2019-05-17T12:47:19.546Z,7.42
2019-05-17T12:49:47.935Z,6.20
2019-05-17T12:52:16.381Z,6.80
2019-05-17T12:54:44.800Z,6.62
2019-05-17T12:57:13.263Z,7.83
2019-05-17T12:59:41.656Z,6.22
2019-05-17T13:02:12.245Z,6.08
2019-05-17T13:04:40.228Z,6.80
2019-05-17T13:07:08.629Z,6.45
2019-05-17T13:09:37.063Z,6.08
2019-05-17T13:12:05.582Z,6.55
2019-05-17T13:14:33.972Z,6.10
2019-05-17T13:17:02.400Z,6.70
2019-05-17T13:19:30.850Z,6.70
2019-05-17T13:21:59.308Z,5.28
2019-05-17T13:24:27.786Z,6.05
2019-05-17T13:26:56.399Z,5.20
2019-05-17T13:29:24.960Z,5.50
2019-05-17T13:31:53.375Z,6.83
2019-05-17T13:34:21.847Z,6.20
2019-05-17T13:36:50.250Z,6.10
2019-05-17T13:39:18.644Z,6.60
2019-05-17T13:41:47.072Z,5.42
2019-05-17T13:44:15.494Z,6.33
2019-05-17T13:46:43.868Z,5.83
2019-05-17T13:49:12.290Z,5.22
2019-05-17T13:51:40.804Z,4.80
2019-05-17T13:54:09.188Z,4.67
2019-05-17T13:56:37.611Z,4.33
2019-05-17T13:59:06.021Z,4.10
2019-05-17T14:01:34.449Z,4.05
2019-05-17T14:04:02.927Z,5.37
2019-05-17T14:06:31.402Z,4.55
2019-05-17T14:08:59.867Z,3.25
2019-05-17T14:11:28.376Z,3.25
2019-05-17T14:13:56.773Z,3.08
2019-05-17T14:16:25.285Z,5.20
2019-05-17T14:18:53.681Z,5.25
2019-05-17T14:21:22.166Z,6.58
2019-05-17T14:23:50.577Z,5.78
2019-05-17T14:26:19.014Z,5.08
2019-05-17T14:28:47.408Z,5.78
2019-05-17T14:31:15.834Z,5.85
2019-05-17T14:33:44.268Z,5.83
2019-05-17T14:36:12.680Z,5.17
2019-05-17T14:38:41.124Z,4.12
2019-05-17T14:41:09.595Z,4.33
2019-05-17T14:43:38.127Z,4.05
2019-05-17T14:46:06.588Z,5.35
2019-05-17T14:48:34.996Z,5.87
2019-05-17T14:51:03.405Z,5.35
2019-05-17T14:53:31.800Z,4.80
2019-05-17T14:56:00.217Z,4.87
2019-05-17T14:58:28.628Z,6.00
2019-05-17T15:00:57.134Z,4.80
2019-05-17T15:03:25.568Z,4.72
2019-05-17T15:05:54.039Z,5.15
2019-05-17T15:08:22.471Z,4.58
2019-05-17T15:10:50.927Z,4.80
2019-05-17T15:13:19.342Z,4.90
2019-05-17T15:15:47.993Z,5.22
2019-05-17T15:18:16.549Z,5.03
2019-05-17T15:20:45.018Z,4.22
2019-05-17T15:23:13.528Z,4.35
2019-05-17T15:25:41.901Z,4.35
2019-05-17T15:28:10.929Z,4.60
2019-05-17T15:30:39.387Z,4.75
2019-05-17T15:33:08.045Z,5.10
2019-05-17T15:35:36.576Z,4.80
2019-05-17T15:38:05.085Z,4.72
2019-05-17T15:40:33.457Z,4.80
2019-05-17T15:43:01.883Z,4.70
2019-05-17T15:45:30.372Z,6.05
2019-05-17T15:47:58.790Z,6.40
2019-05-17T15:50:27.282Z,7.45
2019-05-17T15:52:55.700Z,7.45
2019-05-17T15:55:24.281Z,8.10
2019-05-17T15:57:52.683Z,8.35
2019-05-17T16:00:21.293Z,8.40
2019-05-17T16:02:49.771Z,7.67
2019-05-17T16:05:18.342Z,7.17
2019-05-17T16:07:46.729Z,6.58
2019-05-17T16:10:16.779Z,6.80
2019-05-17T16:13:01.029Z,6.40
2019-05-17T16:15:15.545Z,5.53
2019-05-17T16:17:43.987Z,5.72
2019-05-17T16:20:16.796Z,6.20
2019-05-17T16:22:43.055Z,6.30
2019-05-17T16:25:11.852Z,5.45
2019-05-17T16:27:40.312Z,5.30
2019-05-17T16:30:09.061Z,5.85
2019-05-17T16:32:37.549Z,5.60
2019-05-17T16:35:06.214Z,6.08
2019-05-17T16:37:34.622Z,5.65
2019-05-17T16:40:03.868Z,6.00
2019-05-17T16:42:32.345Z,6.03
2019-05-17T16:45:00.853Z,6.10
2019-05-17T16:47:29.297Z,5.42
2019-05-17T16:49:58.617Z,5.78
2019-05-17T16:52:27.154Z,9.08
2019-05-17T16:54:55.645Z,6.80
2019-05-17T16:57:24.118Z,6.10
2019-05-17T16:59:52.689Z,4.10
2019-05-17T17:02:21.172Z,3.93
2019-05-17T17:04:49.630Z,2.80
2019-05-17T17:07:18.238Z,2.70
2019-05-17T17:09:46.642Z,2.63
2019-05-17T17:12:15.167Z,3.13
2019-05-17T17:14:43.622Z,3.07
2019-05-17T17:17:13.273Z,3.27
2019-05-17T17:19:42.132Z,3.50
2019-05-17T17:22:10.547Z,3.07
2019-05-17T17:24:38.930Z,3.17
2019-05-17T17:27:07.499Z,3.30
2019-05-17T17:29:36.031Z,3.87
2019-05-17T17:32:04.446Z,3.50
2019-05-17T17:34:32.842Z,3.87
2019-05-17T17:37:01.254Z,4.27
2019-05-17T17:39:29.806Z,4.03
2019-05-17T17:41:58.298Z,3.87
2019-05-17T17:44:26.803Z,3.70
2019-05-17T17:46:58.229Z,4.53
2019-05-17T17:49:26.635Z,3.77
2019-05-17T17:51:55.171Z,3.57
2019-05-17T17:54:23.563Z,3.37
2019-05-17T17:57:06.740Z,3.40
2019-05-17T17:59:35.141Z,3.40
2019-05-17T18:02:03.656Z,3.30
2019-05-17T18:04:32.097Z,4.03
2019-05-17T18:07:00.584Z,3.93
2019-05-17T18:09:29.009Z,4.00
2019-05-17T18:11:57.467Z,4.03
2019-05-17T18:14:25.892Z,4.30
2019-05-17T18:16:54.328Z,3.60
2019-05-17T18:19:22.781Z,3.00
2019-05-17T18:21:51.205Z,3.57
2019-05-17T18:24:19.690Z,4.57
2019-05-17T18:26:48.254Z,2.90
2019-05-17T18:29:16.654Z,3.20
2019-05-17T18:31:45.070Z,2.47
2019-05-17T18:34:13.558Z,3.50
2019-05-17T18:36:42.076Z,4.23
2019-05-17T18:39:10.551Z,4.20
2019-05-17T18:41:39.047Z,3.43
2019-05-17T18:44:07.642Z,4.70
2019-05-17T18:46:36.213Z,3.70
2019-05-17T18:49:04.854Z,2.83
2019-05-17T18:51:33.286Z,2.50
2019-05-17T18:54:02.973Z,3.60
2019-05-17T18:56:32.893Z,10.23
2019-05-17T18:59:01.478Z,9.97
2019-05-17T19:01:29.897Z,3.10
2019-05-17T19:03:58.342Z,2.77
2019-05-17T19:06:26.817Z,2.40
2019-05-17T19:08:55.254Z,2.00
2019-05-17T19:11:23.715Z,2.10
2019-05-17T19:13:52.126Z,2.67
2019-05-17T19:16:20.671Z,2.63
2019-05-17T19:18:49.107Z,2.87
2019-05-17T19:21:17.613Z,3.90
2019-05-17T19:23:46.043Z,2.97
2019-05-17T19:26:14.600Z,2.00
2019-05-17T19:28:43.150Z,2.00
2019-05-17T19:31:11.579Z,2.27
2019-05-17T19:33:40.012Z,1.67
2019-05-17T19:36:08.421Z,1.97
2019-05-17T19:38:36.888Z,2.30
2019-05-17T19:41:05.365Z,2.30
2019-05-17T19:43:33.856Z,1.97
2019-05-17T19:46:02.255Z,1.97
2019-05-17T19:48:30.736Z,2.00
2019-05-17T19:50:59.163Z,1.80
2019-05-17T19:53:27.591Z,1.80
2019-05-17T19:55:56.084Z,1.73
2019-05-17T19:58:24.471Z,3.33
2019-05-17T20:03:37.912Z,2.83
2019-05-17T20:06:06.454Z,2.90
2019-05-17T20:08:34.952Z,2.83
2019-05-17T20:11:03.381Z,2.73
2019-05-17T20:13:31.782Z,5.43
2019-05-17T20:16:00.202Z,5.10
2019-05-17T20:18:28.693Z,5.57
2019-05-17T20:20:57.361Z,3.43
2019-05-17T20:23:25.741Z,4.60
2019-05-17T20:25:54.277Z,4.50
2019-05-17T20:28:22.676Z,2.90
2019-05-17T20:30:51.110Z,3.60
2019-05-17T20:33:19.584Z,7.30
2019-05-17T20:35:48.119Z,5.57
2019-05-17T20:38:16.513Z,5.20
2019-05-17T20:40:45.439Z,4.43
2019-05-17T20:43:13.920Z,4.60
2019-05-17T20:45:42.334Z,2.80
2019-05-17T20:48:10.723Z,2.23
2019-05-17T20:50:39.119Z,2.43
2019-05-17T20:53:18.506Z,1.87
2019-05-17T20:55:37.838Z,2.20
2019-05-17T20:58:06.262Z,2.03
2019-05-17T21:00:34.740Z,2.23
2019-05-17T21:03:03.423Z,2.00
2019-05-17T21:05:31.843Z,2.10
2019-05-17T21:08:01.814Z,2.17
2019-05-17T21:10:30.184Z,2.60
2019-05-17T21:12:58.654Z,2.60
2019-05-17T21:15:27.064Z,2.60
2019-05-17T21:17:55.482Z,3.10
2019-05-17T21:20:23.914Z,3.23
2019-05-17T21:22:52.363Z,3.00
2019-05-17T21:25:20.866Z,3.00
2019-05-17T21:27:49.281Z,3.00
2019-05-17T21:30:18.163Z,2.93
2019-05-17T21:32:46.629Z,3.23
2019-05-17T21:35:15.190Z,3.30
2019-05-17T21:37:43.666Z,3.60
2019-05-17T21:40:13.198Z,3.27
2019-05-17T21:42:41.640Z,3.50
2019-05-17T21:45:10.601Z,3.00
2019-05-17T21:47:39.020Z,3.13
2019-05-17T21:50:07.626Z,3.40
2019-05-17T21:52:36.021Z,3.30
2019-05-17T21:55:05.023Z,2.97
2019-05-17T21:57:33.449Z,2.90
2019-05-17T22:00:01.843Z,3.23
2019-05-17T22:02:30.229Z,3.50
2019-05-17T22:04:58.696Z,4.00
2019-05-17T22:07:27.099Z,4.10
2019-05-17T22:09:55.515Z,3.87
2019-05-17T22:12:23.911Z,4.50
2019-05-17T22:14:52.487Z,4.20
2019-05-17T22:17:20.929Z,4.07
2019-05-17T22:19:49.363Z,4.23
2019-05-17T22:22:18.027Z,3.90
2019-05-17T22:24:46.507Z,3.40
2019-05-17T22:27:14.892Z,3.07
2019-05-17T22:29:43.474Z,3.30
2019-05-17T22:32:11.951Z,2.90
2019-05-17T22:34:40.436Z,2.83
2019-05-17T22:37:08.887Z,3.03
2019-05-17T22:39:37.481Z,2.57
2019-05-17T22:42:05.950Z,2.93
2019-05-17T22:44:34.423Z,3.07
2019-05-17T22:47:02.926Z,3.10
2019-05-17T22:49:31.360Z,3.70
2019-05-17T22:51:59.791Z,3.20
2019-05-17T22:54:28.433Z,3.03
2019-05-17T22:56:56.900Z,3.20
2019-05-17T22:59:25.304Z,3.23
2019-05-17T23:01:53.718Z,2.73
2019-05-17T23:04:22.127Z,3.37
2019-05-17T23:06:50.630Z,3.00
2019-05-17T23:09:19.269Z,3.47
2019-05-17T23:11:47.712Z,3.50
2019-05-17T23:14:16.143Z,3.47
2019-05-17T23:16:51.694Z,3.50
2019-05-17T23:19:14.811Z,3.53
2019-05-17T23:21:43.298Z,3.10
2019-05-17T23:24:11.822Z,3.80
2019-05-17T23:26:40.258Z,3.33
2019-05-17T23:29:08.656Z,3.53
2019-05-17T23:31:37.173Z,4.30
2019-05-17T23:34:05.720Z,3.70
2019-05-17T23:36:34.372Z,4.10
2019-05-17T23:39:02.920Z,4.20
2019-05-17T23:41:31.334Z,4.03
2019-05-17T23:43:59.749Z,4.10
2019-05-17T23:46:28.213Z,4.57
2019-05-17T23:48:56.646Z,4.23
2019-05-17T23:51:25.056Z,4.57
2019-05-17T23:53:53.545Z,5.07
2019-05-17T23:56:21.975Z,5.23
2019-05-17T23:58:50.394Z,4.40
